sensor_id;sensor_type;location;lat;lon;timestamp;temperature;humidity
10010;DHT22;5044;48.652;9.250;2023-02-25T00:01:04;3.30;99.90
10010;DHT22;5044;48.652;9.250;2023-02-25T00:03:31;3.30;99.90
10010;DHT22;5044;48.652;9.250;2023-02-25T00:05:59;3.30;99.90
10010;DHT22;5044;48.652;9.250;2023-02-25T00:08:26;3.30;99.90
10010;DHT22;5044;48.652;9.250;2023-02-25T00:11:07;3.50;99.90
10010;DHT22;5044;48.652;9.250;2023-02-25T00:13:34;3.20;99.90
10010;DHT22;5044;48.652;9.250;2023-02-25T00:16:02;3.20;99.90
10010;DHT22;5044;48.652;9.250;2023-02-25T00:18:29;3.20;99.90
10010;DHT22;5044;48.652;9.250;2023-02-25T00:20:56;3.10;99.90
10010;DHT22;5044;48.652;9.250;2023-02-25T00:23:23;3.40;99.90
10010;DHT22;5044;48.652;9.250;2023-02-25T00:25:58;3.00;99.90
10010;DHT22;5044;48.652;9.250;2023-02-25T00:28:26;3.00;99.90
10010;DHT22;5044;48.652;9.250;2023-02-25T00:30:53;3.10;99.90
10010;DHT22;5044;48.652;9.250;2023-02-25T00:33:20;3.00;99.90
10010;DHT22;5044;48.652;9.250;2023-02-25T00:35:47;3.00;99.90
10010;DHT22;5044;48.652;9.250;2023-02-25T00:38:15;2.90;99.90
10010;DHT22;5044;48.652;9.250;2023-02-25T00:40:42;3.10;99.90
10010;DHT22;5044;48.652;9.250;2023-02-25T00:43:10;3.40;99.90
10010;DHT22;5044;48.652;9.250;2023-02-25T00:45:38;3.00;99.90
10010;DHT22;5044;48.652;9.250;2023-02-25T00:48:08;3.00;99.90
10010;DHT22;5044;48.652;9.250;2023-02-25T00:50:35;3.00;99.90
10010;DHT22;5044;48.652;9.250;2023-02-25T00:53:04;3.00;99.90
10010;DHT22;5044;48.652;9.250;2023-02-25T00:55:31;3.00;99.90
10010;DHT22;5044;48.652;9.250;2023-02-25T00:57:59;3.00;99.90
10010;DHT22;5044;48.652;9.250;2023-02-25T01:00:28;3.00;99.90
10010;DHT22;5044;48.652;9.250;2023-02-25T01:02:56;3.10;99.90
10010;DHT22;5044;48.652;9.250;2023-02-25T01:05:23;2.90;99.90
10010;DHT22;5044;48.652;9.250;2023-02-25T01:07:50;3.00;99.90
10010;DHT22;5044;48.652;9.250;2023-02-25T01:10:17;3.10;99.90
10010;DHT22;5044;48.652;9.250;2023-02-25T01:12:44;3.00;99.90
10010;DHT22;5044;48.652;9.250;2023-02-25T01:15:12;3.00;99.90
10010;DHT22;5044;48.652;9.250;2023-02-25T01:17:40;3.10;99.90
10010;DHT22;5044;48.652;9.250;2023-02-25T01:20:09;3.10;99.90
10010;DHT22;5044;48.652;9.250;2023-02-25T01:22:38;3.10;99.90
10010;DHT22;5044;48.652;9.250;2023-02-25T01:25:10;3.10;99.90
10010;DHT22;5044;48.652;9.250;2023-02-25T01:27:40;3.10;99.90
10010;DHT22;5044;48.652;9.250;2023-02-25T01:30:09;3.10;99.90
10010;DHT22;5044;48.652;9.250;2023-02-25T01:32:36;3.10;99.90
10010;DHT22;5044;48.652;9.250;2023-02-25T01:35:06;3.10;99.90
10010;DHT22;5044;48.652;9.250;2023-02-25T01:37:33;3.20;99.90
10010;DHT22;5044;48.652;9.250;2023-02-25T01:39:59;3.20;99.90
10010;DHT22;5044;48.652;9.250;2023-02-25T01:42:26;3.20;99.90
10010;DHT22;5044;48.652;9.250;2023-02-25T01:45:21;3.70;99.90
10010;DHT22;5044;48.652;9.250;2023-02-25T01:47:51;3.20;99.90
10010;DHT22;5044;48.652;9.250;2023-02-25T01:50:24;3.10;99.90
10010;DHT22;5044;48.652;9.250;2023-02-25T01:52:53;3.20;99.90
10010;DHT22;5044;48.652;9.250;2023-02-25T01:55:22;3.20;99.90
10010;DHT22;5044;48.652;9.250;2023-02-25T01:57:50;3.90;99.90
10010;DHT22;5044;48.652;9.250;2023-02-25T02:00:17;3.10;99.90
10010;DHT22;5044;48.652;9.250;2023-02-25T02:02:46;3.10;99.90
10010;DHT22;5044;48.652;9.250;2023-02-25T02:05:15;3.40;99.90
10010;DHT22;5044;48.652;9.250;2023-02-25T02:07:44;3.00;99.90
10010;DHT22;5044;48.652;9.250;2023-02-25T02:10:12;3.00;99.90
10010;DHT22;5044;48.652;9.250;2023-02-25T02:12:41;3.30;99.90
10010;DHT22;5044;48.652;9.250;2023-02-25T02:15:11;3.00;99.90
10010;DHT22;5044;48.652;9.250;2023-02-25T02:17:43;3.00;99.90
10010;DHT22;5044;48.652;9.250;2023-02-25T02:20:16;3.00;99.90
10010;DHT22;5044;48.652;9.250;2023-02-25T02:22:57;3.00;99.90
10010;DHT22;5044;48.652;9.250;2023-02-25T02:29:01;2.90;99.90
10010;DHT22;5044;48.652;9.250;2023-02-25T02:31:43;2.90;99.90
10010;DHT22;5044;48.652;9.250;2023-02-25T02:34:23;2.90;99.90
10010;DHT22;5044;48.652;9.250;2023-02-25T02:37:04;3.10;99.90
10010;DHT22;5044;48.652;9.250;2023-02-25T02:39:40;2.90;99.90
10010;DHT22;5044;48.652;9.250;2023-02-25T02:42:30;2.90;99.90
10010;DHT22;5044;48.652;9.250;2023-02-25T02:45:04;3.10;99.90
10010;DHT22;5044;48.652;9.250;2023-02-25T02:47:34;2.90;99.90
10010;DHT22;5044;48.652;9.250;2023-02-25T02:50:06;3.10;99.90
10010;DHT22;5044;48.652;9.250;2023-02-25T02:52:39;2.90;99.90
10010;DHT22;5044;48.652;9.250;2023-02-25T02:55:13;2.90;99.90
10010;DHT22;5044;48.652;9.250;2023-02-25T02:57:47;2.80;99.90
10010;DHT22;5044;48.652;9.250;2023-02-25T03:00:21;3.10;99.90
10010;DHT22;5044;48.652;9.250;2023-02-25T03:02:56;2.80;99.90
10010;DHT22;5044;48.652;9.250;2023-02-25T03:05:26;2.90;99.90
10010;DHT22;5044;48.652;9.250;2023-02-25T03:07:59;2.90;99.90
10010;DHT22;5044;48.652;9.250;2023-02-25T03:10:29;3.30;99.90
10010;DHT22;5044;48.652;9.250;2023-02-25T03:12:56;2.90;99.90
10010;DHT22;5044;48.652;9.250;2023-02-25T03:15:25;3.10;99.90
10010;DHT22;5044;48.652;9.250;2023-02-25T03:17:59;3.00;99.90
10010;DHT22;5044;48.652;9.250;2023-02-25T03:20:29;3.10;99.90
10010;DHT22;5044;48.652;9.250;2023-02-25T03:23:02;3.20;99.90
10010;DHT22;5044;48.652;9.250;2023-02-25T03:25:35;2.90;99.90
10010;DHT22;5044;48.652;9.250;2023-02-25T03:28:17;2.90;99.90
10010;DHT22;5044;48.652;9.250;2023-02-25T03:30:49;3.20;99.90
10010;DHT22;5044;48.652;9.250;2023-02-25T03:33:20;2.70;99.90
10010;DHT22;5044;48.652;9.250;2023-02-25T03:35:50;2.80;99.90
10010;DHT22;5044;48.652;9.250;2023-02-25T03:38:21;3.10;99.90
10010;DHT22;5044;48.652;9.250;2023-02-25T03:40:50;2.80;99.90
10010;DHT22;5044;48.652;9.250;2023-02-25T03:43:26;3.40;99.90
10010;DHT22;5044;48.652;9.250;2023-02-25T03:45:55;2.80;99.90
10010;DHT22;5044;48.652;9.250;2023-02-25T03:48:25;3.30;99.90
10010;DHT22;5044;48.652;9.250;2023-02-25T03:50:55;2.70;99.90
10010;DHT22;5044;48.652;9.250;2023-02-25T03:53:25;3.00;99.90
10010;DHT22;5044;48.652;9.250;2023-02-25T03:55:52;2.80;99.90
10010;DHT22;5044;48.652;9.250;2023-02-25T03:58:19;2.70;99.90
10010;DHT22;5044;48.652;9.250;2023-02-25T04:00:47;3.40;99.90
10010;DHT22;5044;48.652;9.250;2023-02-25T04:03:16;2.70;99.90
10010;DHT22;5044;48.652;9.250;2023-02-25T04:05:44;2.80;99.90
10010;DHT22;5044;48.652;9.250;2023-02-25T04:08:11;3.60;99.90
10010;DHT22;5044;48.652;9.250;2023-02-25T04:10:40;2.60;99.90
10010;DHT22;5044;48.652;9.250;2023-02-25T04:13:09;2.80;99.90
10010;DHT22;5044;48.652;9.250;2023-02-25T04:15:36;2.60;99.90
10010;DHT22;5044;48.652;9.250;2023-02-25T04:18:03;2.60;99.90
10010;DHT22;5044;48.652;9.250;2023-02-25T04:20:30;2.60;99.90
10010;DHT22;5044;48.652;9.250;2023-02-25T04:22:59;2.40;99.90
10010;DHT22;5044;48.652;9.250;2023-02-25T04:25:30;2.70;99.90
10010;DHT22;5044;48.652;9.250;2023-02-25T04:28:01;2.70;99.90
10010;DHT22;5044;48.652;9.250;2023-02-25T04:30:30;2.50;99.90
10010;DHT22;5044;48.652;9.250;2023-02-25T04:32:58;3.10;99.90
10010;DHT22;5044;48.652;9.250;2023-02-25T04:35:25;3.30;99.90
10010;DHT22;5044;48.652;9.250;2023-02-25T04:37:52;2.50;99.90
10010;DHT22;5044;48.652;9.250;2023-02-25T04:40:22;2.60;99.90
10010;DHT22;5044;48.652;9.250;2023-02-25T04:42:49;2.60;99.90
10010;DHT22;5044;48.652;9.250;2023-02-25T04:45:17;2.60;99.90
10010;DHT22;5044;48.652;9.250;2023-02-25T04:47:50;2.50;99.90
10010;DHT22;5044;48.652;9.250;2023-02-25T04:50:18;2.50;99.90
10010;DHT22;5044;48.652;9.250;2023-02-25T04:52:45;2.50;99.90
10010;DHT22;5044;48.652;9.250;2023-02-25T04:55:12;2.50;99.90
10010;DHT22;5044;48.652;9.250;2023-02-25T04:57:40;2.50;99.90
10010;DHT22;5044;48.652;9.250;2023-02-25T05:00:11;2.50;99.90
10010;DHT22;5044;48.652;9.250;2023-02-25T05:02:41;2.20;99.90
10010;DHT22;5044;48.652;9.250;2023-02-25T05:05:08;2.90;99.90
10010;DHT22;5044;48.652;9.250;2023-02-25T05:07:35;2.50;99.90
10010;DHT22;5044;48.652;9.250;2023-02-25T05:10:04;2.50;99.90
10010;DHT22;5044;48.652;9.250;2023-02-25T05:12:31;2.50;99.90
10010;DHT22;5044;48.652;9.250;2023-02-25T05:14:59;2.60;99.90
10010;DHT22;5044;48.652;9.250;2023-02-25T05:17:30;2.40;99.90
10010;DHT22;5044;48.652;9.250;2023-02-25T05:19:57;2.40;99.90
10010;DHT22;5044;48.652;9.250;2023-02-25T05:22:24;2.80;99.90
10010;DHT22;5044;48.652;9.250;2023-02-25T05:24:51;2.50;99.90
10010;DHT22;5044;48.652;9.250;2023-02-25T05:27:18;2.50;99.90
10010;DHT22;5044;48.652;9.250;2023-02-25T05:29:45;2.40;99.90
10010;DHT22;5044;48.652;9.250;2023-02-25T05:32:13;2.30;99.90
10010;DHT22;5044;48.652;9.250;2023-02-25T05:34:40;2.30;99.90
10010;DHT22;5044;48.652;9.250;2023-02-25T05:37:07;2.70;99.90
10010;DHT22;5044;48.652;9.250;2023-02-25T05:39:35;2.20;99.90
10010;DHT22;5044;48.652;9.250;2023-02-25T05:42:02;3.30;99.90
10010;DHT22;5044;48.652;9.250;2023-02-25T05:44:29;2.60;99.90
10010;DHT22;5044;48.652;9.250;2023-02-25T05:46:56;2.20;99.90
10010;DHT22;5044;48.652;9.250;2023-02-25T05:49:24;2.10;99.90
10010;DHT22;5044;48.652;9.250;2023-02-25T05:51:51;1.90;99.90
10010;DHT22;5044;48.652;9.250;2023-02-25T05:54:22;2.10;99.90
10010;DHT22;5044;48.652;9.250;2023-02-25T06:00:12;2.10;99.90
10010;DHT22;5044;48.652;9.250;2023-02-25T06:02:41;2.00;99.90
10010;DHT22;5044;48.652;9.250;2023-02-25T06:05:14;2.30;99.90
10010;DHT22;5044;48.652;9.250;2023-02-25T06:07:42;1.90;99.90
10010;DHT22;5044;48.652;9.250;2023-02-25T06:10:10;1.90;99.90
10010;DHT22;5044;48.652;9.250;2023-02-25T06:12:37;1.90;99.90
10010;DHT22;5044;48.652;9.250;2023-02-25T06:15:05;2.30;99.90
10010;DHT22;5044;48.652;9.250;2023-02-25T06:17:33;1.90;99.90
10010;DHT22;5044;48.652;9.250;2023-02-25T06:20:00;2.00;99.90
10010;DHT22;5044;48.652;9.250;2023-02-25T06:22:29;1.40;99.90
10010;DHT22;5044;48.652;9.250;2023-02-25T06:24:56;1.80;99.90
10010;DHT22;5044;48.652;9.250;2023-02-25T06:27:23;2.00;99.90
10010;DHT22;5044;48.652;9.250;2023-02-25T06:29:50;2.10;99.90
10010;DHT22;5044;48.652;9.250;2023-02-25T06:32:17;1.90;99.90
10010;DHT22;5044;48.652;9.250;2023-02-25T06:34:44;1.90;99.90
10010;DHT22;5044;48.652;9.250;2023-02-25T06:37:11;1.90;99.90
10010;DHT22;5044;48.652;9.250;2023-02-25T06:39:39;1.90;99.90
10010;DHT22;5044;48.652;9.250;2023-02-25T06:42:07;2.70;99.90
10010;DHT22;5044;48.652;9.250;2023-02-25T06:44:34;2.50;99.90
10010;DHT22;5044;48.652;9.250;2023-02-25T06:47:01;2.40;99.90
10010;DHT22;5044;48.652;9.250;2023-02-25T06:49:29;2.30;99.90
10010;DHT22;5044;48.652;9.250;2023-02-25T06:51:56;2.20;99.90
10010;DHT22;5044;48.652;9.250;2023-02-25T06:54:23;1.70;99.90
10010;DHT22;5044;48.652;9.250;2023-02-25T06:56:51;2.30;99.90
10010;DHT22;5044;48.652;9.250;2023-02-25T06:59:19;1.90;99.90
10010;DHT22;5044;48.652;9.250;2023-02-25T07:01:46;2.30;99.90
10010;DHT22;5044;48.652;9.250;2023-02-25T07:04:14;2.10;99.90
10010;DHT22;5044;48.652;9.250;2023-02-25T07:06:42;2.60;99.90
10010;DHT22;5044;48.652;9.250;2023-02-25T07:09:09;2.20;99.90
10010;DHT22;5044;48.652;9.250;2023-02-25T07:11:37;2.40;99.90
10010;DHT22;5044;48.652;9.250;2023-02-25T07:14:05;2.20;99.90
10010;DHT22;5044;48.652;9.250;2023-02-25T07:16:32;1.80;99.90
10010;DHT22;5044;48.652;9.250;2023-02-25T07:19:00;1.90;99.90
10010;DHT22;5044;48.652;9.250;2023-02-25T07:21:27;2.20;99.90
10010;DHT22;5044;48.652;9.250;2023-02-25T07:23:55;2.20;99.90
10010;DHT22;5044;48.652;9.250;2023-02-25T07:26:23;2.10;99.90
10010;DHT22;5044;48.652;9.250;2023-02-25T07:28:53;3.20;99.90
10010;DHT22;5044;48.652;9.250;2023-02-25T07:31:22;2.30;99.90
10010;DHT22;5044;48.652;9.250;2023-02-25T07:33:49;2.30;99.90
10010;DHT22;5044;48.652;9.250;2023-02-25T07:36:17;3.00;99.90
10010;DHT22;5044;48.652;9.250;2023-02-25T07:38:45;3.10;99.90
10010;DHT22;5044;48.652;9.250;2023-02-25T07:41:14;2.40;99.90
10010;DHT22;5044;48.652;9.250;2023-02-25T07:43:41;2.30;99.90
10010;DHT22;5044;48.652;9.250;2023-02-25T07:46:09;2.30;99.90
10010;DHT22;5044;48.652;9.250;2023-02-25T07:48:39;2.80;99.90
10010;DHT22;5044;48.652;9.250;2023-02-25T07:51:07;2.60;99.90
10010;DHT22;5044;48.652;9.250;2023-02-25T07:53:34;2.20;99.90
10010;DHT22;5044;48.652;9.250;2023-02-25T07:56:01;2.20;99.90
10010;DHT22;5044;48.652;9.250;2023-02-25T07:58:29;2.80;99.90
10010;DHT22;5044;48.652;9.250;2023-02-25T08:00:56;2.40;99.90
10010;DHT22;5044;48.652;9.250;2023-02-25T08:03:23;2.00;99.90
10010;DHT22;5044;48.652;9.250;2023-02-25T08:05:52;2.60;99.90
10010;DHT22;5044;48.652;9.250;2023-02-25T08:08:19;2.60;99.90
10010;DHT22;5044;48.652;9.250;2023-02-25T08:10:46;2.80;99.90
10010;DHT22;5044;48.652;9.250;2023-02-25T08:13:14;3.00;99.90
10010;DHT22;5044;48.652;9.250;2023-02-25T08:15:41;3.50;99.90
10010;DHT22;5044;48.652;9.250;2023-02-25T08:18:08;3.40;99.90
10010;DHT22;5044;48.652;9.250;2023-02-25T08:20:35;3.90;99.90
10010;DHT22;5044;48.652;9.250;2023-02-25T08:23:03;3.60;99.90
10010;DHT22;5044;48.652;9.250;2023-02-25T08:25:31;3.90;99.90
10010;DHT22;5044;48.652;9.250;2023-02-25T08:27:59;3.60;99.90
10010;DHT22;5044;48.652;9.250;2023-02-25T08:30:26;3.70;99.90
10010;DHT22;5044;48.652;9.250;2023-02-25T08:32:53;3.90;99.30
10010;DHT22;5044;48.652;9.250;2023-02-25T08:35:22;3.90;98.60
10010;DHT22;5044;48.652;9.250;2023-02-25T08:37:50;4.30;97.60
10010;DHT22;5044;48.652;9.250;2023-02-25T08:40:19;4.30;96.50
10010;DHT22;5044;48.652;9.250;2023-02-25T08:42:47;4.40;95.50
10010;DHT22;5044;48.652;9.250;2023-02-25T08:45:16;4.30;93.70
10010;DHT22;5044;48.652;9.250;2023-02-25T08:47:43;4.20;95.20
10010;DHT22;5044;48.652;9.250;2023-02-25T08:50:10;4.20;95.30
10010;DHT22;5044;48.652;9.250;2023-02-25T08:52:38;4.10;95.40
10010;DHT22;5044;48.652;9.250;2023-02-25T08:55:06;4.00;94.80
10010;DHT22;5044;48.652;9.250;2023-02-25T08:57:35;4.00;94.50
10010;DHT22;5044;48.652;9.250;2023-02-25T09:03:13;4.10;94.60
10010;DHT22;5044;48.652;9.250;2023-02-25T09:05:40;4.70;93.90
10010;DHT22;5044;48.652;9.250;2023-02-25T09:08:07;4.10;93.50
10010;DHT22;5044;48.652;9.250;2023-02-25T09:10:34;4.70;93.90
10010;DHT22;5044;48.652;9.250;2023-02-25T09:13:04;4.20;92.30
10010;DHT22;5044;48.652;9.250;2023-02-25T09:15:32;4.20;94.20
10010;DHT22;5044;48.652;9.250;2023-02-25T09:17:59;4.10;92.90
10010;DHT22;5044;48.652;9.250;2023-02-25T09:20:25;4.10;90.90
10010;DHT22;5044;48.652;9.250;2023-02-25T09:22:53;4.00;91.80
10010;DHT22;5044;48.652;9.250;2023-02-25T09:25:20;4.00;91.70
10010;DHT22;5044;48.652;9.250;2023-02-25T09:27:47;3.90;92.70
10010;DHT22;5044;48.652;9.250;2023-02-25T09:30:16;3.90;92.60
10010;DHT22;5044;48.652;9.250;2023-02-25T09:32:43;4.10;92.80
10010;DHT22;5044;48.652;9.250;2023-02-25T09:35:11;4.10;93.30
10010;DHT22;5044;48.652;9.250;2023-02-25T09:37:39;4.20;92.50
10010;DHT22;5044;48.652;9.250;2023-02-25T09:40:09;4.70;93.60
10010;DHT22;5044;48.652;9.250;2023-02-25T09:42:45;4.40;95.90
10010;DHT22;5044;48.652;9.250;2023-02-25T09:45:18;4.50;90.80
10010;DHT22;5044;48.652;9.250;2023-02-25T09:47:54;4.80;88.50
10010;DHT22;5044;48.652;9.250;2023-02-25T09:50:32;4.40;90.40
10010;DHT22;5044;48.652;9.250;2023-02-25T09:53:07;4.30;90.00
10010;DHT22;5044;48.652;9.250;2023-02-25T09:55:44;4.50;88.60
10010;DHT22;5044;48.652;9.250;2023-02-25T09:58:19;4.40;87.40
10010;DHT22;5044;48.652;9.250;2023-02-25T10:00:57;4.10;86.90
10010;DHT22;5044;48.652;9.250;2023-02-25T10:03:42;4.90;88.00
10010;DHT22;5044;48.652;9.250;2023-02-25T10:06:18;4.80;86.00
10010;DHT22;5044;48.652;9.250;2023-02-25T10:08:53;4.60;84.50
10010;DHT22;5044;48.652;9.250;2023-02-25T10:11:34;4.70;88.00
10010;DHT22;5044;48.652;9.250;2023-02-25T10:14:06;4.60;80.90
10010;DHT22;5044;48.652;9.250;2023-02-25T10:16:46;5.10;82.70
10010;DHT22;5044;48.652;9.250;2023-02-25T10:19:30;5.50;78.90
10010;DHT22;5044;48.652;9.250;2023-02-25T10:22:14;6.00;78.90
10010;DHT22;5044;48.652;9.250;2023-02-25T10:24:50;5.20;74.00
10010;DHT22;5044;48.652;9.250;2023-02-25T10:27:26;5.10;78.40
10010;DHT22;5044;48.652;9.250;2023-02-25T10:29:58;5.00;72.50
10010;DHT22;5044;48.652;9.250;2023-02-25T10:32:32;4.90;70.60
10010;DHT22;5044;48.652;9.250;2023-02-25T10:35:04;4.90;71.10
10010;DHT22;5044;48.652;9.250;2023-02-25T10:37:37;5.00;74.00
10010;DHT22;5044;48.652;9.250;2023-02-25T10:40:07;4.90;71.20
10010;DHT22;5044;48.652;9.250;2023-02-25T10:42:39;5.00;68.80
10010;DHT22;5044;48.652;9.250;2023-02-25T10:45:10;5.20;71.90
10010;DHT22;5044;48.652;9.250;2023-02-25T10:47:41;5.30;69.10
10010;DHT22;5044;48.652;9.250;2023-02-25T10:50:18;5.00;67.00
10010;DHT22;5044;48.652;9.250;2023-02-25T10:52:55;5.50;67.80
10010;DHT22;5044;48.652;9.250;2023-02-25T10:55:34;5.30;67.60
10010;DHT22;5044;48.652;9.250;2023-02-25T10:58:02;5.20;67.00
10010;DHT22;5044;48.652;9.250;2023-02-25T11:00:31;5.10;66.60
10010;DHT22;5044;48.652;9.250;2023-02-25T11:03:01;5.10;66.60
10010;DHT22;5044;48.652;9.250;2023-02-25T11:05:34;5.00;63.90
10010;DHT22;5044;48.652;9.250;2023-02-25T11:08:03;5.20;64.90
10010;DHT22;5044;48.652;9.250;2023-02-25T11:10:32;5.20;62.90
10010;DHT22;5044;48.652;9.250;2023-02-25T11:13:00;5.50;63.00
10010;DHT22;5044;48.652;9.250;2023-02-25T11:15:32;5.60;63.60
10010;DHT22;5044;48.652;9.250;2023-02-25T11:18:13;5.00;60.70
10010;DHT22;5044;48.652;9.250;2023-02-25T11:20:47;5.20;63.20
10010;DHT22;5044;48.652;9.250;2023-02-25T11:23:20;5.30;66.00
10010;DHT22;5044;48.652;9.250;2023-02-25T11:25:48;5.10;67.60
10010;DHT22;5044;48.652;9.250;2023-02-25T11:28:24;5.70;72.20
10010;DHT22;5044;48.652;9.250;2023-02-25T11:30:53;5.60;70.50
10010;DHT22;5044;48.652;9.250;2023-02-25T11:33:24;5.40;70.80
10010;DHT22;5044;48.652;9.250;2023-02-25T11:35:53;5.50;67.20
10010;DHT22;5044;48.652;9.250;2023-02-25T11:38:25;5.40;67.50
10010;DHT22;5044;48.652;9.250;2023-02-25T11:40:53;5.60;67.60
10010;DHT22;5044;48.652;9.250;2023-02-25T11:43:22;5.50;69.90
10010;DHT22;5044;48.652;9.250;2023-02-25T11:45:58;5.30;68.90
10010;DHT22;5044;48.652;9.250;2023-02-25T11:48:44;5.30;68.90
10010;DHT22;5044;48.652;9.250;2023-02-25T11:51:29;5.20;70.00
10010;DHT22;5044;48.652;9.250;2023-02-25T11:54:20;5.40;69.30
10010;DHT22;5044;48.652;9.250;2023-02-25T11:57:16;5.50;72.20
10010;DHT22;5044;48.652;9.250;2023-02-25T12:00:02;5.60;68.80
10010;DHT22;5044;48.652;9.250;2023-02-25T12:03:08;5.70;66.70
10010;DHT22;5044;48.652;9.250;2023-02-25T12:06:05;5.30;67.90
10010;DHT22;5044;48.652;9.250;2023-02-25T12:12:03;5.00;70.90
10010;DHT22;5044;48.652;9.250;2023-02-25T12:15:06;5.00;73.00
10010;DHT22;5044;48.652;9.250;2023-02-25T12:18:16;5.20;74.60
10010;DHT22;5044;48.652;9.250;2023-02-25T12:27:42;5.20;76.80
10010;DHT22;5044;48.652;9.250;2023-02-25T12:30:36;5.30;72.60
10010;DHT22;5044;48.652;9.250;2023-02-25T12:33:17;5.10;70.80
10010;DHT22;5044;48.652;9.250;2023-02-25T12:35:54;4.90;71.70
10010;DHT22;5044;48.652;9.250;2023-02-25T12:39:11;5.00;74.10
10010;DHT22;5044;48.652;9.250;2023-02-25T12:41:46;4.80;74.40
10010;DHT22;5044;48.652;9.250;2023-02-25T12:44:38;4.80;75.00
10010;DHT22;5044;48.652;9.250;2023-02-25T12:47:20;4.80;76.30
10010;DHT22;5044;48.652;9.250;2023-02-25T12:50:18;4.70;75.70
10010;DHT22;5044;48.652;9.250;2023-02-25T12:53:10;4.60;76.10
10010;DHT22;5044;48.652;9.250;2023-02-25T12:56:10;4.60;77.10
10010;DHT22;5044;48.652;9.250;2023-02-25T12:58:56;5.00;75.80
10010;DHT22;5044;48.652;9.250;2023-02-25T13:01:44;4.70;79.30
10010;DHT22;5044;48.652;9.250;2023-02-25T13:04:49;4.90;81.00
10010;DHT22;5044;48.652;9.250;2023-02-25T13:07:34;5.00;80.70
10010;DHT22;5044;48.652;9.250;2023-02-25T13:13:10;4.80;77.10
10010;DHT22;5044;48.652;9.250;2023-02-25T13:15:51;4.90;78.70
10010;DHT22;5044;48.652;9.250;2023-02-25T13:18:31;4.80;80.80
10010;DHT22;5044;48.652;9.250;2023-02-25T13:21:12;5.00;83.00
10010;DHT22;5044;48.652;9.250;2023-02-25T13:23:58;4.70;87.90
10010;DHT22;5044;48.652;9.250;2023-02-25T13:26:48;5.00;89.50
10010;DHT22;5044;48.652;9.250;2023-02-25T13:29:28;4.70;89.50
10010;DHT22;5044;48.652;9.250;2023-02-25T13:37:58;4.50;91.80
10010;DHT22;5044;48.652;9.250;2023-02-25T13:40:54;4.40;93.60
10010;DHT22;5044;48.652;9.250;2023-02-25T13:43:50;4.30;95.00
10010;DHT22;5044;48.652;9.250;2023-02-25T13:46:56;4.20;95.10
10010;DHT22;5044;48.652;9.250;2023-02-25T13:53:45;4.20;96.40
10010;DHT22;5044;48.652;9.250;2023-02-25T13:59:21;4.00;98.30
10010;DHT22;5044;48.652;9.250;2023-02-25T14:02:01;3.90;99.00
10010;DHT22;5044;48.652;9.250;2023-02-25T14:04:51;4.20;99.90
10010;DHT22;5044;48.652;9.250;2023-02-25T14:10:39;4.30;96.10
10010;DHT22;5044;48.652;9.250;2023-02-25T14:13:35;3.80;92.80
10010;DHT22;5044;48.652;9.250;2023-02-25T14:16:25;4.20;94.70
10010;DHT22;5044;48.652;9.250;2023-02-25T14:19:08;4.30;93.20
10010;DHT22;5044;48.652;9.250;2023-02-25T14:21:49;4.40;91.40
10010;DHT22;5044;48.652;9.250;2023-02-25T14:24:34;4.20;88.80
10010;DHT22;5044;48.652;9.250;2023-02-25T14:27:16;4.30;84.50
10010;DHT22;5044;48.652;9.250;2023-02-25T14:30:07;4.40;90.00
10010;DHT22;5044;48.652;9.250;2023-02-25T14:32:59;4.80;85.70
10010;DHT22;5044;48.652;9.250;2023-02-25T14:35:54;4.60;91.80
10010;DHT22;5044;48.652;9.250;2023-02-25T14:42:04;4.70;86.30
10010;DHT22;5044;48.652;9.250;2023-02-25T14:45:13;4.80;83.40
10010;DHT22;5044;48.652;9.250;2023-02-25T14:47:59;4.80;82.90
10010;DHT22;5044;48.652;9.250;2023-02-25T14:50:41;5.00;85.60
10010;DHT22;5044;48.652;9.250;2023-02-25T14:56:56;5.20;77.70
10010;DHT22;5044;48.652;9.250;2023-02-25T14:59:50;5.20;79.40
10010;DHT22;5044;48.652;9.250;2023-02-25T15:02:42;5.40;75.20
10010;DHT22;5044;48.652;9.250;2023-02-25T15:05:42;5.00;74.60
10010;DHT22;5044;48.652;9.250;2023-02-25T15:11:40;5.30;79.90
10010;DHT22;5044;48.652;9.250;2023-02-25T15:20:38;5.00;72.70
10010;DHT22;5044;48.652;9.250;2023-02-25T15:23:14;5.00;73.10
10010;DHT22;5044;48.652;9.250;2023-02-25T15:25:46;5.00;74.50
10010;DHT22;5044;48.652;9.250;2023-02-25T15:28:40;5.00;70.40
10010;DHT22;5044;48.652;9.250;2023-02-25T15:31:27;5.10;74.10
10010;DHT22;5044;48.652;9.250;2023-02-25T15:34:26;5.10;73.90
10010;DHT22;5044;48.652;9.250;2023-02-25T15:37:24;5.20;72.80
10010;DHT22;5044;48.652;9.250;2023-02-25T15:39:57;5.10;74.00
10010;DHT22;5044;48.652;9.250;2023-02-25T15:42:43;5.00;73.90
10010;DHT22;5044;48.652;9.250;2023-02-25T15:45:44;4.80;75.40
10010;DHT22;5044;48.652;9.250;2023-02-25T15:48:34;4.90;72.60
10010;DHT22;5044;48.652;9.250;2023-02-25T15:51:07;4.80;74.00
10010;DHT22;5044;48.652;9.250;2023-02-25T15:53:43;4.70;73.70
10010;DHT22;5044;48.652;9.250;2023-02-25T15:59:43;4.50;73.90
10010;DHT22;5044;48.652;9.250;2023-02-25T16:02:38;4.50;75.50
10010;DHT22;5044;48.652;9.250;2023-02-25T16:05:20;4.50;74.80
10010;DHT22;5044;48.652;9.250;2023-02-25T16:07:50;4.40;76.30
10010;DHT22;5044;48.652;9.250;2023-02-25T16:10:24;4.50;77.60
10010;DHT22;5044;48.652;9.250;2023-02-25T16:12:53;4.50;77.40
10010;DHT22;5044;48.652;9.250;2023-02-25T16:15:26;4.50;78.70
10010;DHT22;5044;48.652;9.250;2023-02-25T16:17:56;4.70;79.80
10010;DHT22;5044;48.652;9.250;2023-02-25T16:20:28;4.40;79.60
10010;DHT22;5044;48.652;9.250;2023-02-25T16:22:57;4.30;80.50
10010;DHT22;5044;48.652;9.250;2023-02-25T16:25:33;4.30;80.70
10010;DHT22;5044;48.652;9.250;2023-02-25T16:28:10;4.30;84.30
10010;DHT22;5044;48.652;9.250;2023-02-25T16:30:46;4.40;83.90
10010;DHT22;5044;48.652;9.250;2023-02-25T16:33:22;4.20;82.00
10010;DHT22;5044;48.652;9.250;2023-02-25T16:35:58;4.10;80.10
10010;DHT22;5044;48.652;9.250;2023-02-25T16:38:35;4.00;82.30
10010;DHT22;5044;48.652;9.250;2023-02-25T16:41:11;4.10;86.70
10010;DHT22;5044;48.652;9.250;2023-02-25T16:43:43;3.90;94.40
10010;DHT22;5044;48.652;9.250;2023-02-25T16:46:14;3.30;99.90
10010;DHT22;5044;48.652;9.250;2023-02-25T16:48:46;3.90;99.90
10010;DHT22;5044;48.652;9.250;2023-02-25T16:51:21;3.30;99.90
10010;DHT22;5044;48.652;9.250;2023-02-25T16:53:52;2.90;99.90
10010;DHT22;5044;48.652;9.250;2023-02-25T16:56:24;3.50;99.90
10010;DHT22;5044;48.652;9.250;2023-02-25T16:59:02;3.20;99.90
10010;DHT22;5044;48.652;9.250;2023-02-25T17:01:30;3.20;99.90
10010;DHT22;5044;48.652;9.250;2023-02-25T17:04:10;3.20;99.90
10010;DHT22;5044;48.652;9.250;2023-02-25T17:06:38;2.90;99.90
10010;DHT22;5044;48.652;9.250;2023-02-25T17:09:05;3.10;99.90
10010;DHT22;5044;48.652;9.250;2023-02-25T17:11:34;2.70;99.90
10010;DHT22;5044;48.652;9.250;2023-02-25T17:14:02;3.00;99.90
10010;DHT22;5044;48.652;9.250;2023-02-25T17:16:35;3.40;99.90
10010;DHT22;5044;48.652;9.250;2023-02-25T17:19:05;2.80;99.90
10010;DHT22;5044;48.652;9.250;2023-02-25T17:21:35;2.90;99.90
10010;DHT22;5044;48.652;9.250;2023-02-25T17:24:05;3.00;99.90
10010;DHT22;5044;48.652;9.250;2023-02-25T17:26:38;2.80;99.90
10010;DHT22;5044;48.652;9.250;2023-02-25T17:29:10;3.10;99.90
10010;DHT22;5044;48.652;9.250;2023-02-25T17:31:42;2.80;99.90
10010;DHT22;5044;48.652;9.250;2023-02-25T17:34:14;2.70;99.90
10010;DHT22;5044;48.652;9.250;2023-02-25T17:36:42;2.90;99.90
10010;DHT22;5044;48.652;9.250;2023-02-25T17:39:12;3.00;99.90
10010;DHT22;5044;48.652;9.250;2023-02-25T17:41:43;2.70;99.90